UAE132 UUDD-OMDB
Flight info
| Callsign | UAE132 |
|---|---|
| Flight time | N/A |
| Altitude | 33000 |
| Route | TOGMO4N TOGMO M56 DENUD/K0896F350 DCT AKB DCT ARL DCT NVI DCT HNB/N0489F350 DCT AMS DCT BGM DCT KBL DCT ZB/N0487F360 DCT QT DCT PG DCT TU DCT GW DCT ATOSO DCT APELO DCT VEKAN DCT DERTO DCT KUSTO DCT ENEGI DCT KIRUM |
| Aircraft | B77W/H-SDE1E2E3FGHIJ2J3J4J5M1RWXY/LB1D1 |
Departure
| Time | N/A |
|---|---|
| Airport | Domodedovo International Airport (UUDD) |
Arrival
| Time | 2026-04-22 06:41 |
|---|---|
| Airport | Dubai International Airport (OMDB) |
| Time | Latitude | Longitude | Altitude | Speed | Heading |
|---|---|---|---|---|---|
| 2026-04-22 05:59 | 23.82321 | 59.69400 | 34859 ft | 472 kts | 261° |
| 2026-04-22 05:59 | 23.81029 | 59.62328 | 34932 ft | 475 kts | 260° |
| 2026-04-22 06:00 | 23.80377 | 59.58829 | 35218 ft | 474 kts | 260° |
| 2026-04-22 06:00 | 23.79716 | 59.55317 | 35598 ft | 471 kts | 261° |
| 2026-04-22 06:00 | 23.79053 | 59.51813 | 35877 ft | 470 kts | 261° |
| 2026-04-22 06:00 | 23.78386 | 59.48303 | 35849 ft | 470 kts | 261° |
| 2026-04-22 06:01 | 23.77065 | 59.41366 | 35854 ft | 468 kts | 261° |
| 2026-04-22 06:01 | 23.75736 | 59.34404 | 35856 ft | 467 kts | 261° |
| 2026-04-22 06:02 | 23.74417 | 59.27501 | 35857 ft | 466 kts | 261° |
| 2026-04-22 06:02 | 23.73087 | 59.20560 | 35857 ft | 467 kts | 261° |
| 2026-04-22 06:03 | 23.71751 | 59.13611 | 35854 ft | 466 kts | 261° |
| 2026-04-22 06:03 | 23.70422 | 59.06712 | 35853 ft | 466 kts | 261° |
| 2026-04-22 06:04 | 23.69084 | 58.99780 | 35854 ft | 466 kts | 261° |
| 2026-04-22 06:04 | 23.67744 | 58.92863 | 35848 ft | 466 kts | 261° |
| 2026-04-22 06:05 | 23.66410 | 58.85990 | 35850 ft | 465 kts | 261° |
| 2026-04-22 06:05 | 23.65066 | 58.79079 | 35852 ft | 465 kts | 261° |
| 2026-04-22 06:06 | 23.63718 | 58.72165 | 35846 ft | 465 kts | 261° |
| 2026-04-22 06:06 | 23.62388 | 58.65300 | 35849 ft | 463 kts | 262° |
| 2026-04-22 06:07 | 23.61651 | 58.58384 | 35854 ft | 461 kts | 268° |
| 2026-04-22 06:07 | 23.61106 | 58.51391 | 35852 ft | 461 kts | 267° |
| 2026-04-22 06:08 | 23.60535 | 58.44433 | 35858 ft | 460 kts | 268° |
| 2026-04-22 06:08 | 23.59989 | 58.37519 | 35857 ft | 460 kts | 268° |
| 2026-04-22 06:09 | 23.59437 | 58.30564 | 35860 ft | 459 kts | 268° |
| 2026-04-22 06:09 | 23.58880 | 58.23624 | 35858 ft | 458 kts | 268° |
| 2026-04-22 06:10 | 23.58323 | 58.16730 | 35859 ft | 458 kts | 268° |
| 2026-04-22 06:10 | 23.57761 | 58.09812 | 35859 ft | 457 kts | 268° |
| 2026-04-22 06:11 | 23.57682 | 58.02983 | 35863 ft | 451 kts | 283° |
| 2026-04-22 06:11 | 23.59870 | 57.96582 | 35869 ft | 451 kts | 300° |
| 2026-04-22 06:12 | 23.63694 | 57.91169 | 35871 ft | 451 kts | 308° |
| 2026-04-22 06:12 | 23.67684 | 57.85915 | 35867 ft | 451 kts | 308° |
| 2026-04-22 06:13 | 23.71657 | 57.80613 | 35867 ft | 450 kts | 308° |
| 2026-04-22 06:13 | 23.75563 | 57.75327 | 35863 ft | 450 kts | 307° |
| 2026-04-22 06:14 | 23.79490 | 57.69982 | 35866 ft | 450 kts | 307° |
| 2026-04-22 06:14 | 23.83394 | 57.64661 | 35863 ft | 450 kts | 307° |
| 2026-04-22 06:15 | 23.87310 | 57.59319 | 35863 ft | 449 kts | 307° |
| 2026-04-22 06:15 | 23.91221 | 57.53981 | 35860 ft | 449 kts | 307° |
| 2026-04-22 06:16 | 23.95098 | 57.48683 | 35858 ft | 448 kts | 307° |
| 2026-04-22 06:16 | 23.99000 | 57.43344 | 35860 ft | 449 kts | 307° |
| 2026-04-22 06:17 | 24.02899 | 57.38005 | 35851 ft | 448 kts | 307° |
| 2026-04-22 06:17 | 24.06772 | 57.32697 | 35827 ft | 442 kts | 307° |
| 2026-04-22 06:18 | 24.10543 | 57.27524 | 35635 ft | 426 kts | 307° |
| 2026-04-22 06:18 | 24.12386 | 57.24994 | 35377 ft | 423 kts | 307° |
| 2026-04-22 06:18 | 24.14192 | 57.22511 | 35014 ft | 423 kts | 307° |
| 2026-04-22 06:19 | 24.16031 | 57.19982 | 34618 ft | 423 kts | 307° |
| 2026-04-22 06:19 | 24.17868 | 57.17453 | 34258 ft | 423 kts | 307° |
| 2026-04-22 06:19 | 24.19698 | 57.14934 | 33944 ft | 422 kts | 307° |
| 2026-04-22 06:19 | 24.21525 | 57.12419 | 33588 ft | 420 kts | 307° |
| 2026-04-22 06:20 | 24.23338 | 57.09922 | 33114 ft | 417 kts | 307° |
| 2026-04-22 06:20 | 24.25147 | 57.07428 | 32455 ft | 417 kts | 307° |
| 2026-04-22 06:20 | 24.26956 | 57.04932 | 31698 ft | 420 kts | 307° |
| 2026-04-22 06:20 | 24.28788 | 57.02402 | 30982 ft | 423 kts | 306° |
| 2026-04-22 06:21 | 24.30497 | 56.99822 | 30273 ft | 424 kts | 302° |
| 2026-04-22 06:21 | 24.32132 | 56.97119 | 29531 ft | 426 kts | 301° |
| 2026-04-22 06:21 | 24.33746 | 56.94372 | 28730 ft | 428 kts | 301° |
| 2026-04-22 06:21 | 24.35355 | 56.91614 | 27968 ft | 429 kts | 301° |
| 2026-04-22 06:22 | 24.36953 | 56.88884 | 27320 ft | 430 kts | 301° |
| 2026-04-22 06:22 | 24.38575 | 56.86129 | 26725 ft | 429 kts | 301° |
| 2026-04-22 06:22 | 24.40196 | 56.83388 | 26185 ft | 425 kts | 302° |
| 2026-04-22 06:22 | 24.41798 | 56.80689 | 25661 ft | 422 kts | 302° |
| 2026-04-22 06:23 | 24.43396 | 56.78000 | 25146 ft | 418 kts | 302° |
| 2026-04-22 06:23 | 24.44983 | 56.75332 | 24626 ft | 415 kts | 302° |
| 2026-04-22 06:23 | 24.46556 | 56.72686 | 24115 ft | 413 kts | 302° |
| 2026-04-22 06:23 | 24.48119 | 56.70053 | 23615 ft | 410 kts | 302° |
| 2026-04-22 06:24 | 24.51217 | 56.64834 | 22517 ft | 405 kts | 302° |
| 2026-04-22 06:24 | 24.52743 | 56.62261 | 22012 ft | 401 kts | 302° |
| 2026-04-22 06:24 | 24.54259 | 56.59703 | 21522 ft | 397 kts | 302° |
| 2026-04-22 06:25 | 24.55765 | 56.57161 | 21062 ft | 394 kts | 302° |
| 2026-04-22 06:25 | 24.57258 | 56.54639 | 20563 ft | 392 kts | 302° |
| 2026-04-22 06:25 | 24.58736 | 56.52139 | 20101 ft | 389 kts | 302° |
| 2026-04-22 06:25 | 24.60188 | 56.49683 | 19633 ft | 387 kts | 302° |
| 2026-04-22 06:26 | 24.61649 | 56.47209 | 19177 ft | 385 kts | 302° |
| 2026-04-22 06:26 | 24.63101 | 56.44751 | 18718 ft | 383 kts | 302° |
| 2026-04-22 06:26 | 24.64552 | 56.42293 | 18239 ft | 382 kts | 302° |
| 2026-04-22 06:26 | 24.66000 | 56.39840 | 17723 ft | 380 kts | 302° |
| 2026-04-22 06:27 | 24.67431 | 56.37414 | 17234 ft | 378 kts | 302° |
| 2026-04-22 06:27 | 24.68859 | 56.34992 | 16753 ft | 375 kts | 302° |
| 2026-04-22 06:27 | 24.70272 | 56.32595 | 16300 ft | 372 kts | 302° |
| 2026-04-22 06:27 | 24.71676 | 56.30214 | 15852 ft | 369 kts | 302° |
| 2026-04-22 06:28 | 24.73063 | 56.27857 | 15407 ft | 367 kts | 302° |
| 2026-04-22 06:28 | 24.74449 | 56.25501 | 14964 ft | 365 kts | 302° |
| 2026-04-22 06:28 | 24.75826 | 56.23158 | 14515 ft | 363 kts | 302° |
| 2026-04-22 06:28 | 24.77188 | 56.20841 | 14082 ft | 361 kts | 302° |
| 2026-04-22 06:29 | 24.78531 | 56.18554 | 13626 ft | 359 kts | 302° |
| 2026-04-22 06:29 | 24.79877 | 56.16262 | 13248 ft | 354 kts | 302° |
| 2026-04-22 06:29 | 24.81207 | 56.13997 | 12829 ft | 351 kts | 302° |
| 2026-04-22 06:29 | 24.82530 | 56.11742 | 12413 ft | 347 kts | 301° |
| 2026-04-22 06:30 | 24.83835 | 56.09520 | 12002 ft | 344 kts | 301° |
| 2026-04-22 06:30 | 24.85128 | 56.07313 | 11586 ft | 342 kts | 301° |
| 2026-04-22 06:30 | 24.86412 | 56.05119 | 11166 ft | 339 kts | 301° |
| 2026-04-22 06:30 | 24.87668 | 56.02973 | 10790 ft | 336 kts | 301° |
| 2026-04-22 06:31 | 24.88921 | 56.00833 | 10486 ft | 317 kts | 301° |
| 2026-04-22 06:31 | 24.90064 | 55.98886 | 10339 ft | 297 kts | 301° |
| 2026-04-22 06:31 | 24.91158 | 55.97016 | 10178 ft | 285 kts | 301° |
| 2026-04-22 06:31 | 24.92210 | 55.95215 | 10086 ft | 275 kts | 300° |
| 2026-04-22 06:32 | 24.93228 | 55.93470 | 9930 ft | 269 kts | 300° |
| 2026-04-22 06:32 | 24.94240 | 55.91735 | 9630 ft | 268 kts | 300° |
| 2026-04-22 06:32 | 24.95247 | 55.90009 | 9301 ft | 267 kts | 300° |
| 2026-04-22 06:32 | 24.96250 | 55.88293 | 8989 ft | 266 kts | 300° |
| 2026-04-22 06:33 | 24.97252 | 55.86576 | 8663 ft | 266 kts | 300° |
| 2026-04-22 06:33 | 24.98251 | 55.84862 | 8361 ft | 266 kts | 300° |
| 2026-04-22 06:33 | 24.99252 | 55.83143 | 8039 ft | 265 kts | 300° |
| 2026-04-22 06:33 | 25.00241 | 55.81425 | 7739 ft | 265 kts | 299° |
| 2026-04-22 06:34 | 25.01195 | 55.79720 | 7426 ft | 265 kts | 299° |
| 2026-04-22 06:34 | 25.02158 | 55.77993 | 7123 ft | 265 kts | 299° |
| 2026-04-22 06:34 | 25.03130 | 55.76325 | 6810 ft | 269 kts | 300° |
| 2026-04-22 06:34 | 25.04146 | 55.74564 | 6503 ft | 275 kts | 299° |
| 2026-04-22 06:35 | 25.05162 | 55.72761 | 6275 ft | 274 kts | 298° |
| 2026-04-22 06:35 | 25.06148 | 55.70995 | 6130 ft | 266 kts | 298° |
| 2026-04-22 06:35 | 25.07112 | 55.69257 | 5829 ft | 266 kts | 298° |
| 2026-04-22 06:35 | 25.08073 | 55.67518 | 5539 ft | 266 kts | 298° |
| 2026-04-22 06:36 | 25.09041 | 55.65768 | 5190 ft | 268 kts | 298° |
| 2026-04-22 06:36 | 25.10016 | 55.64014 | 4872 ft | 269 kts | 298° |
| 2026-04-22 06:36 | 25.10994 | 55.62246 | 4526 ft | 271 kts | 298° |
| 2026-04-22 06:36 | 25.11977 | 55.60470 | 4172 ft | 272 kts | 298° |
| 2026-04-22 06:37 | 25.12943 | 55.58724 | 3847 ft | 274 kts | 298° |
| 2026-04-22 06:37 | 25.13943 | 55.56921 | 3510 ft | 275 kts | 298° |
| 2026-04-22 06:37 | 25.14931 | 55.55134 | 3128 ft | 268 kts | 298° |
| 2026-04-22 06:37 | 25.15883 | 55.53425 | 2810 ft | 253 kts | 299° |
| 2026-04-22 06:38 | 25.16783 | 55.51815 | 2483 ft | 239 kts | 300° |
| 2026-04-22 06:38 | 25.17590 | 55.50341 | 2243 ft | 210 kts | 299° |
| 2026-04-22 06:38 | 25.18311 | 55.49032 | 1977 ft | 192 kts | 300° |
| 2026-04-22 06:38 | 25.18977 | 55.47823 | 1737 ft | 176 kts | 300° |
| 2026-04-22 06:39 | 25.19583 | 55.46730 | 1527 ft | 158 kts | 301° |
| 2026-04-22 06:39 | 25.20153 | 55.45698 | 1327 ft | 160 kts | 301° |
| 2026-04-22 06:39 | 25.20721 | 55.44626 | 1102 ft | 162 kts | 301° |
| 2026-04-22 06:39 | 25.21303 | 55.43575 | 850 ft | 158 kts | 304° |
| 2026-04-22 06:40 | 25.21868 | 55.42577 | 602 ft | 151 kts | 303° |
| 2026-04-22 06:40 | 25.22407 | 55.41619 | 366 ft | 145 kts | 303° |
| 2026-04-22 06:40 | 25.22933 | 55.40665 | 235 ft | 149 kts | 304° |
| 2026-04-22 06:40 | 25.23484 | 55.39680 | 54 ft | 148 kts | 304° |
| 2026-04-22 06:41 | 25.23982 | 55.38788 | 28 ft | 119 kts | 302° |
| 2026-04-22 06:41 | 25.24317 | 55.38183 | 27 ft | 65 kts | 302° |
| 2026-04-22 06:41 | 25.24515 | 55.37826 | 27 ft | 38 kts | 301° |
| 2026-04-22 06:41 | 25.24592 | 55.37658 | 27 ft | 21 kts | 289° |
| 2026-04-22 06:42 | 25.24616 | 55.37498 | 27 ft | 21 kts | 271° |
| 2026-04-22 06:42 | 25.24614 | 55.37376 | 27 ft | 14 kts | 274° |
| 2026-04-22 06:42 | 25.24627 | 55.37270 | 27 ft | 14 kts | 285° |
| 2026-04-22 06:42 | 25.24671 | 55.37177 | 27 ft | 14 kts | 302° |
| 2026-04-22 06:43 | 25.24722 | 55.37087 | 27 ft | 14 kts | 302° |
| 2026-04-22 06:43 | 25.24769 | 55.37002 | 27 ft | 8 kts | 298° |
| 2026-04-22 06:43 | 25.24769 | 55.36964 | 27 ft | 8 kts | 243° |
| 2026-04-22 06:43 | 25.24715 | 55.36922 | 27 ft | 13 kts | 211° |
| 2026-04-22 06:44 | 25.24624 | 55.36861 | 27 ft | 16 kts | 211° |
| 2026-04-22 06:44 | 25.24531 | 55.36796 | 27 ft | 16 kts | 212° |
| 2026-04-22 06:44 | 25.24436 | 55.36733 | 27 ft | 16 kts | 201° |
| 2026-04-22 06:44 | 25.24352 | 55.36773 | 29 ft | 13 kts | 122° |
| 2026-04-22 06:45 | 25.24317 | 55.36836 | 28 ft | 10 kts | 121° |
| 2026-04-22 06:45 | 25.24286 | 55.36892 | 26 ft | 1 kts | 121° |
| 2026-04-22 06:45 | 25.24279 | 55.36904 | 27 ft | 2 kts | 121° |
| 2026-04-22 06:45 | 25.24267 | 55.36928 | 26 ft | 5 kts | 121° |
| 2026-04-22 06:46 | 25.24268 | 55.36964 | 27 ft | 5 kts | 63° |
| 2026-04-22 06:46 | 25.24296 | 55.36981 | 27 ft | 2 kts | 27° |
| 2026-04-22 06:46 | 25.24308 | 55.36989 | 27 ft | 2 kts | 31° |
| 2026-04-22 06:46 | 25.24322 | 55.36998 | 27 ft | 2 kts | 31° |
| 2026-04-22 06:47 | 25.24332 | 55.37005 | 27 ft | 2 kts | 31° |
| 2026-04-22 06:47 | 25.24335 | 55.37006 | 27 ft | 0 kts | 31° |
| 2026-04-22 06:47 | 25.24335 | 55.37007 | 27 ft | 0 kts | 31° |